Terminal Aerodrome Forecast
Issued by NWS

Home | Current Version | Previous Version | Text Only | Print | Product List | Glossary On
Versions: 1 2 3 4 5 6 7 8 9 10 11 12 13 14 15 16 17 18
000
FTUS44 KEPZ 212300 RRA
TAFTCS
TAF
KTCS 212354Z 2200/2224 12007KT P6SM VCTS SCT040CB BKN080
     FM220600 01007KT P6SM VCTS BKN030CB OVC080
      TEMPO 2206/2210 VRB20G30KT 3SM TSRA SCT010 BKN025CB OVC050
     FM221000 04010KT 6SM -SHRA BKN035 BKN080 OVC200
      TEMPO 2211/2215 VRB20G30KT 3SM TSRA BKN020CB OVC050
     FM221800 15012KT P6SM VCTS BKN040CB BKN080 BKN200=

USA.gov is the U.S. government's official web portal to all federal, state and local government web resources and services.